createdAt,value
2018-03-02T00:00:49.959Z,-9.20
2018-03-02T00:03:20.449Z,-9.20
2018-03-02T00:05:50.586Z,-9.30
2018-03-02T00:08:21.901Z,-9.30
2018-03-02T00:10:52.523Z,-9.30
2018-03-02T00:13:22.213Z,-9.40
2018-03-02T00:15:52.378Z,-9.30
2018-03-02T00:18:22.273Z,-9.40
2018-03-02T00:20:52.139Z,-9.40
2018-03-02T00:23:22.735Z,-9.40
2018-03-02T00:25:52.343Z,-9.40
2018-03-02T00:28:26.560Z,-9.40
2018-03-02T00:30:56.150Z,-9.40
2018-03-02T00:33:26.113Z,-9.40
2018-03-02T00:35:56.896Z,-9.40
2018-03-02T00:38:26.778Z,-9.50
2018-03-02T00:40:56.549Z,-9.40
2018-03-02T00:43:26.207Z,-9.50
2018-03-02T00:45:55.867Z,-9.50
2018-03-02T00:48:25.793Z,-9.50
2018-03-02T00:50:56.365Z,-9.50
2018-03-02T00:53:25.972Z,-9.60
2018-03-02T00:55:55.985Z,-9.60
2018-03-02T00:58:25.741Z,-9.60
2018-03-02T01:00:55.454Z,-9.60
2018-03-02T01:03:25.487Z,-9.60
2018-03-02T01:05:55.903Z,-9.70
2018-03-02T01:08:25.507Z,-9.80
2018-03-02T01:10:55.760Z,-9.70
2018-03-02T01:13:27.848Z,-9.70
2018-03-02T01:15:57.456Z,-9.70
2018-03-02T01:18:27.156Z,-9.70
2018-03-02T01:20:57.102Z,-9.70
2018-03-02T01:23:26.618Z,-9.80
2018-03-02T01:25:56.673Z,-9.80
2018-03-02T01:28:27.510Z,-9.80
2018-03-02T01:30:57.244Z,-9.90
2018-03-02T01:33:26.881Z,-9.80
2018-03-02T01:35:56.357Z,-9.80
2018-03-02T01:38:26.068Z,-9.80
2018-03-02T01:40:56.547Z,-9.90
2018-03-02T01:43:26.444Z,-9.90
2018-03-02T01:45:55.934Z,-9.90
2018-03-02T01:48:25.409Z,-9.90
2018-03-02T01:50:55.000Z,-9.90
2018-03-02T01:53:25.460Z,-10.00
2018-03-02T01:55:54.872Z,-10.10
2018-03-02T01:58:24.283Z,-10.00
2018-03-02T02:00:53.823Z,-10.00
2018-03-02T02:03:24.042Z,-10.00
2018-03-02T02:05:54.260Z,-10.10
2018-03-02T02:08:23.897Z,-10.20
2018-03-02T02:10:53.814Z,-10.10
2018-03-02T02:13:23.112Z,-10.10
2018-03-02T02:15:52.577Z,-10.10
2018-03-02T02:18:23.136Z,-10.10
2018-03-02T02:20:54.182Z,-10.20
2018-03-02T02:23:24.236Z,-10.20
2018-03-02T02:25:53.503Z,-10.30
2018-03-02T02:28:22.879Z,-10.20
2018-03-02T02:30:52.895Z,-10.20
2018-03-02T02:33:25.334Z,-10.20
2018-03-02T02:35:59.599Z,-10.30
2018-03-02T02:38:29.904Z,-10.20
2018-03-02T02:40:59.164Z,-10.30
2018-03-02T02:43:28.444Z,-10.20
2018-03-02T02:45:57.629Z,-10.30
2018-03-02T02:48:26.805Z,-10.30
2018-03-02T02:50:56.852Z,-10.30
2018-03-02T02:53:29.885Z,-10.40
2018-03-02T02:55:59.478Z,-10.30
2018-03-02T02:58:28.951Z,-10.40
2018-03-02T03:00:58.632Z,-10.40
2018-03-02T03:03:30.016Z,-10.40
2018-03-02T03:05:59.337Z,-10.50
2018-03-02T03:08:28.878Z,-10.40
2018-03-02T03:10:58.905Z,-10.50
2018-03-02T03:13:29.156Z,-10.50
2018-03-02T03:15:58.967Z,-10.40
2018-03-02T03:18:28.404Z,-10.50
2018-03-02T04:04:39.759Z,-10.70
2018-03-02T04:07:09.057Z,-10.80
2018-03-02T04:09:38.820Z,-10.70
2018-03-02T04:12:08.826Z,-10.70
2018-03-02T04:14:38.054Z,-10.80
2018-03-02T04:17:07.322Z,-10.70
2018-03-02T04:19:36.567Z,-10.70
2018-03-02T04:22:06.159Z,-10.70
2018-03-02T04:24:35.503Z,-10.70
2018-03-02T04:27:04.890Z,-10.80
2018-03-02T04:29:34.201Z,-10.70
2018-03-02T04:32:04.172Z,-10.70
2018-03-02T04:34:33.348Z,-10.80
2018-03-02T04:37:03.826Z,-10.70
2018-03-02T04:39:33.091Z,-10.80
2018-03-02T04:42:03.002Z,-10.80
2018-03-02T04:44:32.505Z,-10.80
2018-03-02T04:47:02.567Z,-10.80
2018-03-02T04:49:32.205Z,-10.90
2018-03-02T04:52:01.363Z,-10.80
2018-03-02T04:54:30.483Z,-10.80
2018-03-02T04:57:00.001Z,-10.80
2018-03-02T04:59:29.640Z,-10.80
2018-03-02T05:01:59.659Z,-10.80
2018-03-02T05:04:29.209Z,-10.90
2018-03-02T05:06:58.762Z,-10.80
2018-03-02T05:09:29.004Z,-10.80
2018-03-02T05:11:58.624Z,-10.90
2018-03-02T05:14:27.785Z,-10.80
2018-03-02T05:16:57.653Z,-10.90
2018-03-02T05:19:27.976Z,-10.90
2018-03-02T05:21:57.512Z,-10.80
2018-03-02T05:24:27.695Z,-10.80
2018-03-02T05:26:57.206Z,-10.90
2018-03-02T05:29:26.769Z,-10.90
2018-03-02T05:31:56.798Z,-10.90
2018-03-02T05:34:26.146Z,-10.90
2018-03-02T05:36:56.197Z,-10.90
2018-03-02T05:39:29.941Z,-10.90
2018-03-02T05:41:59.396Z,-11.00
2018-03-02T05:44:28.969Z,-10.90
2018-03-02T05:46:58.486Z,-10.90
2018-03-02T05:49:29.581Z,-10.90
2018-03-02T05:51:59.561Z,-10.90
2018-03-02T05:54:28.824Z,-10.90
2018-03-02T05:56:58.389Z,-10.90
2018-03-02T05:59:28.832Z,-10.90
2018-03-02T06:01:58.681Z,-11.00
2018-03-02T06:04:28.521Z,-10.90
2018-03-02T06:06:58.145Z,-11.00
2018-03-02T06:09:28.771Z,-11.00
2018-03-02T06:11:59.184Z,-11.00
2018-03-02T06:14:29.384Z,-11.10
2018-03-02T06:16:59.052Z,-11.00
2018-03-02T06:19:28.622Z,-11.00
2018-03-02T06:21:58.409Z,-11.00
2018-03-02T06:24:28.384Z,-11.00
2018-03-02T06:26:58.258Z,-11.00
2018-03-02T06:29:28.481Z,-11.00
2018-03-02T06:31:58.010Z,-10.90
2018-03-02T06:34:34.907Z,-10.90
2018-03-02T06:37:04.557Z,-11.00
2018-03-02T06:39:34.933Z,-11.00
2018-03-02T06:42:04.911Z,-10.90
2018-03-02T06:44:34.987Z,-10.90
2018-03-02T06:47:04.746Z,-10.90
2018-03-02T06:49:34.756Z,-10.80
2018-03-02T06:52:04.388Z,-10.80
2018-03-02T06:54:34.805Z,-10.70
2018-03-02T06:57:12.237Z,-10.60
2018-03-02T06:59:42.813Z,-10.60
2018-03-02T07:02:12.434Z,-10.50
2018-03-02T07:04:51.055Z,-10.30
2018-03-02T07:07:21.460Z,-10.30
2018-03-02T07:09:51.688Z,-10.40
2018-03-02T07:12:22.973Z,-10.30
2018-03-02T07:14:53.170Z,-10.40
2018-03-02T07:17:22.987Z,-10.30
2018-03-02T07:19:54.151Z,-10.30
2018-03-02T07:22:25.040Z,-10.30
2018-03-02T07:24:55.840Z,-10.30
2018-03-02T07:27:25.654Z,-10.20
2018-03-02T07:29:56.489Z,-10.20
2018-03-02T07:32:26.454Z,-10.10
2018-03-02T07:34:56.882Z,-9.90
2018-03-02T07:37:27.001Z,-10.00
2018-03-02T07:39:56.716Z,-10.00
2018-03-02T07:42:26.527Z,-10.00
2018-03-02T07:44:57.331Z,-10.10
2018-03-02T07:47:27.195Z,-10.20
2018-03-02T07:49:57.056Z,-10.00
2018-03-02T07:52:26.728Z,-10.00
2018-03-02T07:54:56.330Z,-9.90
2018-03-02T07:57:26.575Z,-9.90
2018-03-02T07:59:57.529Z,-9.80
2018-03-02T08:02:27.165Z,-9.60
2018-03-02T08:04:57.086Z,-9.30
2018-03-02T08:07:27.624Z,-9.00
2018-03-02T08:09:58.369Z,-8.90
2018-03-02T08:14:35.989Z,-8.90
2018-03-02T08:17:09.869Z,-9.00
2018-03-02T08:19:39.796Z,-8.70
2018-03-02T08:22:10.248Z,-8.20
2018-03-02T08:24:40.097Z,-8.30
2018-03-02T08:28:12.512Z,-8.20
2018-03-02T08:30:42.614Z,-8.10
2018-03-02T08:33:12.670Z,-8.00
2018-03-02T08:35:45.036Z,-8.00
2018-03-02T08:38:14.733Z,-8.10
2018-03-02T08:40:45.309Z,-7.80
2018-03-02T08:43:15.154Z,-7.90
2018-03-02T08:45:45.082Z,-8.00
2018-03-02T08:48:15.545Z,-7.30
2018-03-02T08:50:45.216Z,-7.40
2018-03-02T08:53:15.820Z,-6.80
2018-03-02T08:55:45.261Z,-6.90
2018-03-02T08:58:16.069Z,-6.80
2018-03-02T09:00:45.795Z,-6.90
2018-03-02T09:03:16.644Z,-6.70
2018-03-02T09:05:49.255Z,-6.40
2018-03-02T09:08:20.173Z,-6.00
2018-03-02T09:10:49.837Z,-6.00
2018-03-02T09:13:19.455Z,-5.90
2018-03-02T09:15:49.631Z,-5.90
2018-03-02T09:18:19.441Z,-5.70
2018-03-02T09:20:50.027Z,-5.80
2018-03-02T09:23:19.553Z,-6.10
2018-03-02T09:25:49.172Z,-6.10
2018-03-02T09:28:23.697Z,-6.30
2018-03-02T09:30:53.472Z,-6.00
2018-03-02T09:33:24.099Z,-5.70
2018-03-02T09:35:54.616Z,-6.00
2018-03-02T09:38:29.189Z,-6.10
2018-03-02T09:41:04.925Z,-5.60
2018-03-02T09:43:36.043Z,-5.50
2018-03-02T09:46:05.937Z,-5.50
2018-03-02T09:48:36.149Z,-5.20
2018-03-02T09:51:05.906Z,-5.10
2018-03-02T09:53:36.305Z,-5.10
2018-03-02T09:56:06.212Z,-5.20
2018-03-02T09:58:36.061Z,-5.00
2018-03-02T10:01:06.610Z,-5.00
2018-03-02T10:03:36.394Z,-5.20
2018-03-02T10:06:06.901Z,-4.90
2018-03-02T10:08:36.441Z,-5.00
2018-03-02T10:11:06.965Z,-5.20
2018-03-02T10:13:37.269Z,-5.10
2018-03-02T10:16:07.222Z,-5.10
2018-03-02T10:18:39.403Z,-5.20
2018-03-02T10:21:09.178Z,-5.10
2018-03-02T10:23:39.688Z,-5.10
2018-03-02T10:26:09.801Z,-5.20
2018-03-02T10:28:39.736Z,-5.40
2018-03-02T10:31:09.621Z,-5.10
2018-03-02T10:33:39.293Z,-5.00
2018-03-02T10:36:09.196Z,-4.60
2018-03-02T10:38:38.782Z,-4.50
2018-03-02T10:41:08.645Z,-4.40
2018-03-02T10:43:38.507Z,-4.40
2018-03-02T10:46:09.056Z,-4.20
2018-03-02T10:48:39.532Z,-3.80
2018-03-02T10:51:09.281Z,-3.80
2018-03-02T10:53:39.699Z,-3.50
2018-03-02T10:56:10.522Z,-4.00
2018-03-02T10:58:40.815Z,-4.10
2018-03-02T11:01:12.534Z,-3.90
2018-03-02T11:03:47.331Z,-3.90
2018-03-02T11:06:16.901Z,-4.00
2018-03-02T11:08:46.566Z,-3.70
2018-03-02T11:11:16.879Z,-3.80
2018-03-02T11:13:47.616Z,-3.90
2018-03-02T11:16:21.807Z,-3.80
2018-03-02T11:18:56.411Z,-3.60
2018-03-02T11:21:26.230Z,-3.60
2018-03-02T11:23:55.979Z,-3.60
2018-03-02T11:26:26.431Z,-3.70
2018-03-02T11:28:55.959Z,-3.70
2018-03-02T11:31:26.515Z,-3.50
2018-03-02T11:33:56.365Z,-3.60
2018-03-02T11:36:27.079Z,-2.70
2018-03-02T11:38:57.918Z,-3.00
2018-03-02T11:41:28.395Z,-3.10
2018-03-02T11:43:58.112Z,-3.00
2018-03-02T11:46:28.197Z,-3.00
2018-03-02T11:48:57.901Z,-3.00
2018-03-02T11:51:28.273Z,-3.00
2018-03-02T11:53:57.966Z,-3.10
2018-03-02T11:56:27.672Z,-2.50
2018-03-02T11:58:57.900Z,-2.30
2018-03-02T12:01:28.396Z,-2.10
2018-03-02T12:03:59.014Z,-2.20
2018-03-02T12:06:28.722Z,-2.20
2018-03-02T12:08:59.147Z,-2.10
2018-03-02T12:11:29.737Z,-2.50
2018-03-02T12:13:59.703Z,-2.50
2018-03-02T12:16:30.963Z,-2.20
2018-03-02T12:19:01.390Z,-2.20
2018-03-02T12:21:31.306Z,-2.20
2018-03-02T12:24:01.302Z,-2.20
2018-03-02T12:26:31.550Z,-2.50
2018-03-02T12:29:02.265Z,-2.20
2018-03-02T12:31:32.815Z,-2.00
2018-03-02T12:34:02.699Z,-2.00
2018-03-02T12:36:33.580Z,-1.50
2018-03-02T12:39:05.031Z,-1.60
2018-03-02T12:41:34.879Z,-1.10
2018-03-02T12:44:04.985Z,-1.80
2018-03-02T12:46:34.597Z,-2.20
2018-03-02T12:49:04.395Z,-2.40
2018-03-02T12:51:34.107Z,-2.40
2018-03-02T12:54:04.132Z,-2.50
2018-03-02T12:56:34.001Z,-1.80
2018-03-02T12:59:04.410Z,-2.20
2018-03-02T13:01:34.212Z,-2.30
2018-03-02T13:04:04.816Z,-2.40
2018-03-02T13:06:34.438Z,-2.40
2018-03-02T13:09:04.888Z,-2.40
2018-03-02T13:11:34.422Z,-2.40
2018-03-02T13:14:04.616Z,-2.40
2018-03-02T13:16:35.054Z,-2.40
2018-03-02T13:19:04.973Z,-2.50
2018-03-02T13:21:34.469Z,-2.40
2018-03-02T13:24:10.259Z,-2.30
2018-03-02T13:28:50.954Z,-2.10
2018-03-02T13:31:20.555Z,-2.00
2018-03-02T13:35:56.538Z,-1.80
2018-03-02T13:38:26.242Z,-1.90
2018-03-02T13:43:02.149Z,-2.10
2018-03-02T13:45:31.788Z,-1.40
2018-03-02T13:48:10.156Z,-1.60
2018-03-02T13:50:39.983Z,-1.40
2018-03-02T13:53:10.320Z,-1.40
2018-03-02T13:55:40.109Z,-1.50
2018-03-02T13:58:11.469Z,-1.40
2018-03-02T14:00:44.956Z,-1.20
2018-03-02T14:05:27.810Z,-1.30
2018-03-02T14:07:57.420Z,-1.40
2018-03-02T14:10:27.023Z,-1.60
2018-03-02T14:12:56.539Z,-1.40
2018-03-02T14:15:26.232Z,-1.10
2018-03-02T14:17:55.920Z,-1.00
2018-03-02T14:20:25.455Z,-1.30
2018-03-02T14:22:54.918Z,-1.60
2018-03-02T14:25:24.748Z,-1.40
2018-03-02T14:27:55.418Z,-1.30
2018-03-02T14:30:25.366Z,-1.40
2018-03-02T14:32:54.870Z,-1.50
2018-03-02T14:35:28.350Z,-2.00
2018-03-02T14:37:58.027Z,-2.10
2018-03-02T14:40:42.193Z,-2.40
2018-03-02T14:43:11.753Z,-2.50
2018-03-02T14:45:42.196Z,-2.30
2018-03-02T14:48:13.157Z,-2.40
2018-03-02T14:50:43.425Z,-2.30
2018-03-02T14:53:13.775Z,-2.40
2018-03-02T14:55:44.015Z,-2.60
2018-03-02T14:58:14.441Z,-2.80
2018-03-02T15:00:44.745Z,-2.70
2018-03-02T15:03:14.796Z,-2.80
2018-03-02T15:05:44.308Z,-2.90
2018-03-02T15:08:13.951Z,-3.00
2018-03-02T15:10:43.495Z,-3.10
2018-03-02T15:13:17.425Z,-3.10
2018-03-02T15:15:47.063Z,-3.20
2018-03-02T15:18:16.619Z,-3.10
2018-03-02T15:20:46.555Z,-3.20
2018-03-02T15:23:16.068Z,-3.30
2018-03-02T15:25:45.617Z,-3.30
2018-03-02T15:28:15.544Z,-3.30
2018-03-02T15:30:46.256Z,-3.30
2018-03-02T15:33:16.042Z,-3.40
2018-03-02T15:35:45.677Z,-3.30
2018-03-02T15:38:16.112Z,-3.60
2018-03-02T15:40:46.121Z,-3.70
2018-03-02T15:43:15.831Z,-3.60
2018-03-02T15:45:45.641Z,-3.70
2018-03-02T15:48:15.255Z,-3.70
2018-03-02T15:50:45.633Z,-3.70
2018-03-02T15:53:15.972Z,-3.70
2018-03-02T15:55:45.551Z,-3.80
2018-03-02T15:58:15.111Z,-3.80
2018-03-02T16:00:44.793Z,-3.80
2018-03-02T16:03:14.367Z,-3.80
2018-03-02T16:05:45.702Z,-3.90
2018-03-02T16:08:15.242Z,-4.00
2018-03-02T16:10:44.876Z,-4.00
2018-03-02T16:13:14.825Z,-4.00
2018-03-02T16:15:45.209Z,-4.10
2018-03-02T16:18:14.858Z,-4.20
2018-03-02T16:20:45.280Z,-4.20
2018-03-02T16:26:18.784Z,-4.20
2018-03-02T16:28:49.020Z,-4.30
2018-03-02T16:31:19.595Z,-4.40
2018-03-02T16:33:49.427Z,-4.40
2018-03-02T16:36:19.107Z,-4.40
2018-03-02T16:38:48.737Z,-4.40
2018-03-02T16:41:18.453Z,-4.40
2018-03-02T16:43:48.130Z,-4.50
2018-03-02T16:46:17.728Z,-4.60
2018-03-02T16:48:47.964Z,-4.60
2018-03-02T16:51:22.875Z,-4.70
2018-03-02T16:53:53.098Z,-4.60
2018-03-02T16:56:23.445Z,-4.70
2018-03-02T16:58:53.793Z,-4.70
2018-03-02T17:01:24.110Z,-4.70
2018-03-02T17:03:54.500Z,-4.70
2018-03-02T17:06:24.777Z,-4.80
2018-03-02T17:08:54.331Z,-4.80
2018-03-02T17:11:24.564Z,-4.80
2018-03-02T17:13:57.744Z,-4.90
2018-03-02T17:16:27.099Z,-4.80
2018-03-02T17:18:56.446Z,-4.80
2018-03-02T17:21:31.784Z,-4.90
2018-03-02T17:24:02.128Z,-4.90
2018-03-02T17:26:31.683Z,-5.00
2018-03-02T17:29:01.620Z,-4.90
2018-03-02T17:31:31.840Z,-4.90
2018-03-02T17:34:02.359Z,-5.00
2018-03-02T17:36:32.662Z,-5.00
2018-03-02T17:39:02.058Z,-5.00
2018-03-02T17:41:32.240Z,-5.10
2018-03-02T17:44:01.738Z,-5.10
2018-03-02T17:46:31.797Z,-5.10
2018-03-02T17:49:01.461Z,-5.10
2018-03-02T17:51:31.598Z,-5.10
2018-03-02T17:54:01.207Z,-5.10
2018-03-02T17:56:30.981Z,-5.10
2018-03-02T17:59:01.325Z,-5.10
2018-03-02T18:01:31.470Z,-5.10
2018-03-02T18:04:01.261Z,-5.20
2018-03-02T18:06:30.807Z,-5.20
2018-03-02T18:09:00.932Z,-5.20
2018-03-02T18:11:30.404Z,-5.20
2018-03-02T18:13:59.937Z,-5.20
2018-03-02T18:16:29.522Z,-5.20
2018-03-02T18:18:59.063Z,-5.30
2018-03-02T18:21:28.679Z,-5.30
2018-03-02T18:23:58.092Z,-5.30
2018-03-02T18:26:28.631Z,-5.40
2018-03-02T18:28:58.216Z,-5.40
2018-03-02T18:31:27.721Z,-5.30
2018-03-02T18:33:58.043Z,-5.40
2018-03-02T18:36:27.493Z,-5.40
2018-03-02T18:38:57.113Z,-5.40
2018-03-02T18:41:26.571Z,-5.50
2018-03-02T18:43:56.880Z,-5.50
2018-03-02T18:46:27.970Z,-5.60
2018-03-02T18:48:57.448Z,-5.60
2018-03-02T18:51:27.663Z,-5.60
2018-03-02T18:53:58.497Z,-5.60
2018-03-02T18:56:28.223Z,-5.70
2018-03-02T18:58:58.481Z,-5.70
2018-03-02T19:01:28.037Z,-5.70
2018-03-02T19:03:57.564Z,-5.70
2018-03-02T19:06:28.050Z,-5.80
2018-03-02T19:08:57.454Z,-5.80
2018-03-02T19:11:27.054Z,-5.80
2018-03-02T19:13:56.558Z,-5.80
2018-03-02T19:16:25.923Z,-5.80
2018-03-02T19:18:55.352Z,-5.90
2018-03-02T19:21:24.896Z,-5.90
2018-03-02T19:23:55.170Z,-5.90
2018-03-02T19:26:24.646Z,-6.00
2018-03-02T19:28:55.032Z,-5.90
2018-03-02T19:31:25.451Z,-6.00
2018-03-02T19:33:54.989Z,-6.10
2018-03-02T19:36:27.553Z,-6.00
2018-03-02T19:38:57.686Z,-6.00
2018-03-02T19:41:27.718Z,-6.10
2018-03-02T19:43:57.164Z,-6.00
2018-03-02T19:46:27.011Z,-6.10
2018-03-02T19:48:57.578Z,-6.10
2018-03-02T19:51:27.256Z,-6.20
2018-03-02T19:53:57.468Z,-6.10
2018-03-02T19:56:27.043Z,-6.10
2018-03-02T19:58:56.550Z,-6.10
2018-03-02T20:01:26.006Z,-6.20
2018-03-02T20:03:56.250Z,-6.30
2018-03-02T20:06:27.858Z,-6.20
2018-03-02T20:08:58.093Z,-6.30
2018-03-02T20:11:28.322Z,-6.30
2018-03-02T20:13:58.425Z,-6.30
2018-03-02T20:16:28.638Z,-6.30
2018-03-02T20:18:58.353Z,-6.40
2018-03-02T20:24:28.618Z,-6.40
2018-03-02T20:26:58.922Z,-6.40
2018-03-02T20:29:28.517Z,-6.50
2018-03-02T20:31:58.391Z,-6.40
2018-03-02T20:34:28.857Z,-6.50
2018-03-02T20:37:01.615Z,-6.40
2018-03-02T20:39:31.742Z,-6.50
2018-03-02T20:42:02.390Z,-6.50
2018-03-02T20:44:32.920Z,-6.50
2018-03-02T20:47:02.446Z,-6.50
2018-03-02T20:49:32.914Z,-6.60
2018-03-02T20:52:02.373Z,-6.60
2018-03-02T20:54:32.627Z,-6.60
2018-03-02T20:57:02.429Z,-6.70
2018-03-02T20:59:31.896Z,-6.60
2018-03-02T21:02:01.338Z,-6.60
2018-03-02T21:04:31.007Z,-6.70
2018-03-02T21:07:00.483Z,-6.60
2018-03-02T21:10:49.059Z,-6.70
2018-03-02T21:13:19.374Z,-6.80
2018-03-02T21:15:48.923Z,-6.90
2018-03-02T21:18:19.470Z,-6.80
2018-03-02T21:20:48.968Z,-6.90
2018-03-02T21:23:19.100Z,-6.90
2018-03-02T21:25:48.403Z,-6.90
2018-03-02T21:28:17.995Z,-6.90
2018-03-02T21:30:47.383Z,-6.80
2018-03-02T21:33:21.080Z,-6.80
2018-03-02T21:36:01.188Z,-6.80
2018-03-02T21:38:36.608Z,-6.90
2018-03-02T21:41:09.187Z,-6.80
2018-03-02T21:43:39.356Z,-6.80
2018-03-02T21:46:08.748Z,-6.90
2018-03-02T21:48:38.133Z,-6.80
2018-03-02T21:51:07.509Z,-6.80
2018-03-02T21:53:36.884Z,-6.90
2018-03-02T21:56:07.005Z,-6.90
2018-03-02T21:58:37.204Z,-6.90
2018-03-02T22:01:07.061Z,-6.90
2018-03-02T22:03:36.398Z,-6.90
2018-03-02T22:06:06.585Z,-6.90
2018-03-02T22:08:35.974Z,-6.90
2018-03-02T22:11:06.619Z,-7.00
2018-03-02T22:13:36.036Z,-7.00
2018-03-02T22:16:07.325Z,-6.90
2018-03-02T22:18:39.253Z,-7.00
2018-03-02T22:21:09.022Z,-7.00
2018-03-02T22:23:39.244Z,-7.00
2018-03-02T22:26:09.488Z,-7.00
2018-03-02T22:28:39.188Z,-7.10
2018-03-02T22:31:08.739Z,-7.00
2018-03-02T22:33:38.083Z,-7.00
2018-03-02T22:36:08.303Z,-7.10
2018-03-02T22:38:38.416Z,-7.10
2018-03-02T22:41:08.444Z,-7.10
2018-03-02T22:43:38.721Z,-7.10
2018-03-02T22:47:11.533Z,-7.20
2018-03-02T22:49:41.032Z,-7.20
2018-03-02T22:52:10.537Z,-7.20
2018-03-02T22:54:40.036Z,-7.20
2018-03-02T22:57:09.631Z,-7.20
2018-03-02T22:59:40.002Z,-7.30
2018-03-02T23:02:13.494Z,-7.30
2018-03-02T23:04:43.796Z,-7.30
2018-03-02T23:07:13.370Z,-7.40
2018-03-02T23:09:42.919Z,-7.30
2018-03-02T23:12:13.399Z,-7.40
2018-03-02T23:14:43.107Z,-7.40
2018-03-02T23:17:12.678Z,-7.40
2018-03-02T23:19:42.799Z,-7.40
2018-03-02T23:22:13.109Z,-7.40
2018-03-02T23:24:42.702Z,-7.40
2018-03-02T23:27:12.235Z,-7.30
2018-03-02T23:29:42.380Z,-7.40
2018-03-02T23:32:14.062Z,-7.50
2018-03-02T23:34:43.673Z,-7.40
2018-03-02T23:37:13.203Z,-7.30
2018-03-02T23:39:42.728Z,-7.30
2018-03-02T23:42:13.360Z,-7.40
2018-03-02T23:44:44.786Z,-7.40
2018-03-02T23:47:14.504Z,-7.40
2018-03-02T23:49:44.009Z,-7.40
2018-03-02T23:52:13.610Z,-7.40
2018-03-02T23:54:43.184Z,-7.40
2018-03-02T23:57:12.924Z,-7.50
2018-03-02T23:59:42.533Z,-7.40
